Time;durP1;ratioP1;P1;durP2;ratioP2;P2;SDS_P1;SDS_P2;PMS_P1;PMS_P2;Temp;Humidity;BMP_temperature;BMP_pressure;BME280_temperature;BME280_humidity;BME280_pressure;Samples;Min_cycle;Max_cycle;Signal;HPM_P1;HPM_P2
2024/02/01 00:01:41;;;;;;;10.23;5.72;;;;;;;12.03;75.39;102656.53;5020085;28;20060;-65
2024/02/01 00:04:09;;;;;;;10.50;5.75;;;;;;;12.13;75.28;102659.28;5012168;28;20049;-64
2024/02/01 00:06:38;;;;;;;13.68;6.60;;;;;;;12.11;75.70;102642.97;5033847;28;20041;-65
2024/02/01 00:09:09;;;;;;;11.07;6.15;;;;;;;12.32;75.29;102644.63;5009634;28;20644;-64
2024/02/01 00:11:41;;;;;;;18.07;5.80;;;;;;;12.22;75.56;102649.34;5022906;28;20100;-64
2024/02/01 00:14:08;;;;;;;13.60;6.75;;;;;;;12.06;75.92;102637.47;5007999;28;20620;-64
2024/02/01 00:16:36;;;;;;;8.95;5.70;;;;;;;12.01;76.12;102623.63;5022679;28;20054;-63
2024/02/01 00:19:03;;;;;;;11.85;6.22;;;;;;;12.35;75.69;102610.06;5007985;28;20060;-66
2024/02/01 00:21:31;;;;;;;10.30;5.97;;;;;;;12.48;74.67;102603.97;4991475;28;20054;-66
2024/02/01 00:23:59;;;;;;;12.20;6.43;;;;;;;12.41;74.71;102603.44;5007504;28;20762;-65
2024/02/01 00:26:30;;;;;;;13.18;6.88;;;;;;;12.27;75.31;102603.16;5005990;28;20038;-66
2024/02/01 00:28:58;;;;;;;12.80;6.38;;;;;;;12.11;76.57;102598.78;5007375;28;20057;-65
2024/02/01 00:31:26;;;;;;;13.15;7.10;;;;;;;12.15;76.65;102585.25;5005970;28;20042;-65
2024/02/01 00:33:53;;;;;;;11.35;6.70;;;;;;;12.09;76.78;102587.19;5006939;28;20054;-65
2024/02/01 00:36:22;;;;;;;11.60;6.47;;;;;;;11.98;77.52;102581.91;4988693;28;20054;-68
2024/02/01 00:38:50;;;;;;;10.50;6.53;;;;;;;12.11;77.11;102586.91;4999318;28;20054;-62
2024/02/01 00:41:17;;;;;;;11.45;6.50;;;;;;;12.36;75.94;102589.63;5016163;28;20052;-60
2024/02/01 00:43:45;;;;;;;11.43;5.80;;;;;;;12.23;76.07;102591.03;5036152;28;20054;-60
2024/02/01 00:46:14;;;;;;;11.95;6.90;;;;;;;11.81;78.28;102584.97;5004780;28;20054;-60
2024/02/01 00:48:41;;;;;;;13.00;6.53;;;;;;;11.97;78.17;102561.78;5036439;28;20060;-60
2024/02/01 00:51:09;;;;;;;12.43;6.95;;;;;;;12.14;77.41;102558.72;5006444;28;20050;-60
2024/02/01 00:53:36;;;;;;;14.57;7.03;;;;;;;12.01;77.60;102562.06;5006011;28;20058;-60
2024/02/01 00:56:04;;;;;;;10.23;6.35;;;;;;;11.82;78.40;102564.53;5006463;28;20054;-60
2024/02/01 00:58:31;;;;;;;15.15;7.18;;;;;;;11.68;79.65;102554.34;5006485;28;20058;-61
2024/02/01 01:00:59;;;;;;;13.02;7.20;;;;;;;11.44;81.26;102551.25;5007378;28;20065;-61
2024/02/01 01:03:26;;;;;;;11.45;6.60;;;;;;;11.51;81.68;102551.81;5004757;28;20080;-60
2024/02/01 01:05:54;;;;;;;10.43;6.68;;;;;;;11.68;80.65;102563.44;5006183;28;20061;-63
2024/02/01 01:08:21;;;;;;;12.40;7.18;;;;;;;12.06;79.87;102543.56;5006623;28;20061;-60
2024/02/01 01:10:48;;;;;;;15.20;7.63;;;;;;;11.70;80.27;102539.16;5020216;28;20072;-61
2024/02/01 01:13:16;;;;;;;14.23;7.20;;;;;;;11.77;80.65;102538.91;5005043;28;20057;-61
2024/02/01 01:15:43;;;;;;;16.33;7.30;;;;;;;11.78;80.81;102544.13;5006175;28;20058;-61
2024/02/01 01:18:11;;;;;;;12.75;6.97;;;;;;;12.03;80.20;102549.59;5005708;28;20401;-61
2024/02/01 01:20:38;;;;;;;14.30;7.25;;;;;;;11.66;81.25;102546.34;5005870;28;20049;-60
2024/02/01 01:23:05;;;;;;;11.43;6.95;;;;;;;11.81;81.16;102546.34;5005959;28;20061;-61
2024/02/01 01:25:33;;;;;;;13.88;6.75;;;;;;;11.97;79.56;102538.84;5038343;28;20054;-61
2024/02/01 01:28:00;;;;;;;14.02;7.03;;;;;;;11.87;80.39;102534.16;5037551;28;20069;-61
2024/02/01 01:30:29;;;;;;;13.35;6.95;;;;;;;11.89;80.22;102537.47;4989638;28;20708;-61
2024/02/01 01:32:56;;;;;;;12.52;6.68;;;;;;;11.95;80.50;102550.19;5007124;28;20062;-62
2024/02/01 01:35:24;;;;;;;12.57;6.53;;;;;;;12.05;79.82;102541.88;5005295;28;20054;-60
2024/02/01 01:37:51;;;;;;;13.68;6.70;;;;;;;12.00;79.65;102533.59;5036829;28;20064;-60
2024/02/01 01:40:18;;;;;;;13.45;6.88;;;;;;;11.94;80.23;102533.91;5007168;28;20134;-61
2024/02/01 01:42:46;;;;;;;13.35;6.90;;;;;;;11.82;80.80;102536.13;5007581;28;20497;-60
2024/02/01 01:45:13;;;;;;;12.98;6.70;;;;;;;11.89;80.87;102544.94;4991676;28;20852;-61
2024/02/01 01:47:41;;;;;;;13.73;6.65;;;;;;;11.85;81.29;102550.19;4995832;28;20053;-61
2024/02/01 01:50:08;;;;;;;11.15;6.97;;;;;;;11.81;81.59;102542.72;5012363;28;20065;-61
2024/02/01 01:52:38;;;;;;;12.90;6.75;;;;;;;11.79;81.65;102540.25;5021154;28;20054;-61
2024/02/01 01:55:06;;;;;;;13.05;6.72;;;;;;;11.66;82.25;102528.94;5006730;28;20058;-61
2024/02/01 01:57:33;;;;;;;15.20;7.50;;;;;;;11.69;81.82;102529.22;5006216;28;20054;-60
2024/02/01 02:00:01;;;;;;;12.98;7.38;;;;;;;11.50;82.89;102525.34;5021371;28;20069;-60
2024/02/01 02:02:31;;;;;;;13.90;7.50;;;;;;;11.70;82.65;102521.78;5006482;28;20061;-60
2024/02/01 02:04:59;;;;;;;14.88;7.35;;;;;;;11.82;81.99;102520.34;5020814;28;20057;-60
2024/02/01 02:07:26;;;;;;;13.60;7.90;;;;;;;11.70;81.87;102507.97;5004229;28;20145;-60
2024/02/01 02:09:54;;;;;;;15.23;7.82;;;;;;;11.75;82.00;102502.44;5004598;28;20054;-61
2024/02/01 02:12:21;;;;;;;13.80;7.20;;;;;;;11.74;81.84;102498.00;5005777;28;20057;-61
2024/02/01 02:15:00;;;;;;;15.32;7.85;;;;;;;11.79;81.89;102495.25;5005439;28;20064;-60
2024/02/01 02:17:29;;;;;;;14.95;6.85;;;;;;;11.74;82.05;102493.31;5004355;28;20054;-64
2024/02/01 02:20:04;;;;;;;16.05;8.00;;;;;;;11.69;82.37;102496.09;5005619;28;20054;-61
2024/02/01 02:22:32;;;;;;;15.40;7.38;;;;;;;11.88;82.17;102504.63;5020672;28;20049;-62
2024/02/01 02:24:59;;;;;;;11.80;7.60;;;;;;;11.79;81.95;102509.03;5005789;28;20060;-60
2024/02/01 02:27:26;;;;;;;14.90;7.57;;;;;;;11.81;82.09;102504.91;5005416;28;20815;-61
2024/02/01 02:29:54;;;;;;;12.88;7.85;;;;;;;11.89;81.46;102511.81;5005724;28;20084;-62
2024/02/01 02:32:23;;;;;;;13.48;7.50;;;;;;;11.79;81.28;102509.03;5004150;28;20057;-61
2024/02/01 02:34:50;;;;;;;13.63;7.25;;;;;;;11.90;81.47;102513.47;5021631;28;20072;-60
2024/02/01 02:37:17;;;;;;;16.33;7.57;;;;;;;11.85;81.36;102506.03;5009043;28;20053;-61
2024/02/01 02:39:45;;;;;;;13.65;7.68;;;;;;;12.00;80.91;102517.03;5008185;28;20057;-61
2024/02/01 02:42:12;;;;;;;13.10;7.65;;;;;;;11.56;82.85;102502.13;5008707;28;20053;-61
2024/02/01 02:44:39;;;;;;;13.15;7.45;;;;;;;11.82;82.28;102512.06;5006438;28;20058;-62
2024/02/01 02:47:07;;;;;;;14.48;7.20;;;;;;;11.87;81.33;102509.31;5009730;28;20068;-64
2024/02/01 02:49:34;;;;;;;10.18;6.80;;;;;;;12.01;81.64;102523.38;5007905;28;20560;-65
2024/02/01 02:52:02;;;;;;;12.57;7.43;;;;;;;11.69;82.63;102518.19;5009266;28;20073;-65
2024/02/01 02:54:30;;;;;;;13.60;7.63;;;;;;;11.73;82.64;102521.22;5008429;28;20058;-65
2024/02/01 02:56:57;;;;;;;14.65;7.75;;;;;;;11.72;82.78;102525.91;5008973;28;20049;-65
2024/02/01 02:59:25;;;;;;;12.85;7.15;;;;;;;11.93;82.53;102529.47;4991744;28;20058;-65
2024/02/01 03:01:54;;;;;;;13.75;7.13;;;;;;;12.01;81.71;102521.44;5023989;28;20068;-66
2024/02/01 03:04:22;;;;;;;12.95;7.10;;;;;;;12.23;81.29;102518.34;5009507;28;20438;-65
2024/02/01 03:06:49;;;;;;;14.05;7.60;;;;;;;12.20;80.75;102524.44;4992093;28;20080;-65
2024/02/01 03:09:17;;;;;;;13.10;6.97;;;;;;;12.11;80.99;102518.69;5008938;28;20152;-60
2024/02/01 03:11:44;;;;;;;16.90;7.32;;;;;;;12.05;81.09;102510.66;5015322;28;20485;-60
2024/02/01 03:14:12;;;;;;;12.60;7.35;;;;;;;11.87;81.77;102502.97;5029298;28;20069;-60
2024/02/01 03:16:39;;;;;;;12.80;7.43;;;;;;;12.05;81.70;102503.22;5028698;28;20049;-60
2024/02/01 03:19:11;;;;;;;17.02;8.27;;;;;;;11.83;82.26;102507.41;5027712;28;20049;-60
2024/02/01 03:21:39;;;;;;;13.10;7.28;;;;;;;11.91;82.47;102502.13;5027448;28;20056;-62
2024/02/01 03:24:07;;;;;;;12.75;7.10;;;;;;;11.92;82.24;102503.81;5029028;28;20659;-61
2024/02/01 03:26:34;;;;;;;14.63;7.15;;;;;;;11.93;82.13;102505.44;5010989;28;20147;-61
2024/02/01 03:29:02;;;;;;;14.38;7.72;;;;;;;12.03;81.93;102518.41;5021506;28;20065;-61
2024/02/01 03:31:35;;;;;;;13.23;7.60;;;;;;;12.10;81.69;102517.00;5007672;28;20064;-60
2024/02/01 03:34:10;;;;;;;11.85;7.25;;;;;;;12.02;81.88;102523.09;5007519;28;20509;-61
2024/02/01 03:36:40;;;;;;;18.30;7.53;;;;;;;11.91;82.45;102523.38;4989953;28;20050;-61
2024/02/01 03:39:29;;;;;;;12.93;7.13;;;;;;;11.94;82.98;102520.88;5007636;28;20054;-61
2024/02/01 03:41:56;;;;;;;12.82;7.65;;;;;;;12.02;82.63;102512.06;5007381;28;20069;-61
2024/02/01 03:44:24;;;;;;;14.82;7.38;;;;;;;11.91;83.28;102504.06;5005771;28;20050;-61
2024/02/01 03:46:53;;;;;;;15.60;7.78;;;;;;;11.99;83.11;102509.88;5005830;28;20426;-61
2024/02/01 03:49:21;;;;;;;21.05;8.63;;;;;;;11.99;83.02;102497.97;5007136;28;20054;-61
2024/02/01 03:51:49;;;;;;;15.15;7.30;;;;;;;11.91;83.43;102507.66;5007152;28;20428;-61
2024/02/01 03:54:16;;;;;;;16.13;7.50;;;;;;;12.05;83.75;102514.25;5007610;28;20056;-62
2024/02/01 03:56:43;;;;;;;14.07;7.18;;;;;;;12.10;83.05;102517.00;5008128;28;20054;-61
2024/02/01 03:59:11;;;;;;;14.48;7.68;;;;;;;12.13;83.45;102518.38;5007506;28;20057;-61
2024/02/01 04:01:41;;;;;;;14.23;7.28;;;;;;;12.04;83.67;102504.31;5008003;28;20367;-61
2024/02/01 04:04:17;;;;;;;14.13;7.25;;;;;;;12.00;84.04;102502.38;5007685;28;20068;-60
2024/02/01 04:06:51;;;;;;;12.75;6.93;;;;;;;11.98;83.94;102496.31;5008295;28;20595;-60
2024/02/01 04:09:24;;;;;;;13.88;7.32;;;;;;;12.02;84.16;102502.94;5006857;28;20056;-60
2024/02/01 04:11:51;;;;;;;13.38;6.97;;;;;;;11.92;84.62;102498.28;5020434;28;20085;-60
2024/02/01 04:14:18;;;;;;;11.02;6.57;;;;;;;11.95;84.79;102494.94;5022587;28;20053;-61
2024/02/01 04:16:47;;;;;;;12.57;7.20;;;;;;;11.87;85.23;102509.31;5008541;28;20049;-61
2024/02/01 04:19:14;;;;;;;14.65;7.15;;;;;;;11.78;85.40;102504.63;5008631;28;20065;-61
2024/02/01 04:21:46;;;;;;;13.18;7.45;;;;;;;11.87;85.56;102511.25;5007787;28;20050;-61
2024/02/01 04:24:14;;;;;;;11.50;6.95;;;;;;;11.93;85.27;102512.91;5008989;28;20057;-60
2024/02/01 04:26:41;;;;;;;10.90;6.50;;;;;;;11.96;84.99;102501.31;5008192;28;20068;-61
2024/02/01 04:29:11;;;;;;;12.77;6.28;;;;;;;12.10;84.60;102510.66;5039058;28;20392;-61
2024/02/01 04:31:38;;;;;;;;;;;;;;;12.08;84.39;102510.13;5023389;28;20068;-61
2024/02/01 04:34:07;;;;;;;13.38;7.00;;;;;;;12.01;84.84;102509.59;5006186;28;20419;-61
2024/02/01 04:36:34;;;;;;;12.45;6.70;;;;;;;11.97;85.19;102519.53;5005670;28;20053;-61
2024/02/01 04:39:07;;;;;;;12.90;6.50;;;;;;;12.10;84.49;102516.19;5004927;28;20049;-60
2024/02/01 04:41:35;;;;;;;12.77;6.60;;;;;;;12.23;84.04;102526.66;5036930;28;20622;-61
2024/02/01 04:44:02;;;;;;;11.90;6.30;;;;;;;12.22;83.80;102519.47;5005912;28;20061;-62
2024/02/01 04:46:29;;;;;;;14.60;6.35;;;;;;;12.18;83.48;102527.50;5007053;28;20061;-61
2024/02/01 04:48:57;;;;;;;14.70;7.13;;;;;;;12.19;84.03;102525.53;5006761;28;20065;-62
2024/02/01 04:51:25;;;;;;;17.58;6.28;;;;;;;11.94;85.52;102520.88;5005808;28;20406;-61
2024/02/01 04:53:52;;;;;;;13.80;6.35;;;;;;;12.09;85.51;102523.66;5004992;28;20069;-61
2024/02/01 04:56:19;;;;;;;14.40;6.72;;;;;;;12.07;86.42;102517.56;5006165;28;20057;-62
2024/02/01 04:58:46;;;;;;;11.10;6.55;;;;;;;12.10;88.49;102519.75;5007313;28;20358;-62
2024/02/01 05:01:14;;;;;;;14.60;7.15;;;;;;;11.86;91.03;102515.09;5007003;28;20049;-61
2024/02/01 05:03:41;;;;;;;15.85;7.10;;;;;;;11.92;91.84;102506.56;5005275;28;20069;-61
2024/02/01 05:06:09;;;;;;;18.40;7.90;;;;;;;11.79;93.99;102514.56;5006830;28;20056;-61
2024/02/01 05:08:37;;;;;;;14.88;7.30;;;;;;;11.74;95.77;102514.56;5004921;28;20062;-60
2024/02/01 05:11:04;;;;;;;14.60;7.25;;;;;;;11.94;95.11;102507.09;5006240;28;20080;-61
2024/02/01 05:13:32;;;;;;;15.27;7.63;;;;;;;11.65;97.14;102519.00;5005877;28;20064;-62
2024/02/01 05:16:02;;;;;;;17.38;8.13;;;;;;;11.59;98.23;102518.16;5001842;28;20049;-61
2024/02/01 05:18:29;;;;;;;16.83;8.18;;;;;;;11.61;99.27;102515.94;5006390;28;20061;-61
2024/02/01 05:20:57;;;;;;;12.93;7.90;;;;;;;11.59;99.92;102517.31;5005744;28;20058;-61
2024/02/01 05:23:24;;;;;;;19.55;8.18;;;;;;;11.52;100.00;102511.25;5002564;28;20085;-61
2024/02/01 05:25:51;;;;;;;15.43;8.27;;;;;;;11.45;100.00;102510.69;5004874;28;20062;-60
2024/02/01 05:28:19;;;;;;;15.85;7.38;;;;;;;11.49;100.00;102520.09;5048499;28;20156;-61
2024/02/01 05:30:46;;;;;;;20.60;8.38;;;;;;;11.61;100.00;102520.63;5005451;28;20045;-62
2024/02/01 05:33:13;;;;;;;13.35;8.45;;;;;;;11.42;100.00;102520.34;5006361;28;20096;-61
2024/02/01 05:35:42;;;;;;;18.65;8.38;;;;;;;11.49;100.00;102517.34;5007195;28;20058;-61
2024/02/01 05:38:09;;;;;;;19.02;9.18;;;;;;;11.71;100.00;102517.91;5021367;28;20066;-61
2024/02/01 05:40:37;;;;;;;17.65;8.55;;;;;;;11.57;100.00;102514.00;5021350;28;20042;-62
2024/02/01 05:43:05;;;;;;;17.98;8.07;;;;;;;11.53;100.00;102516.50;5021356;28;20104;-63
2024/02/01 05:45:34;;;;;;;18.17;8.77;;;;;;;11.43;100.00;102518.41;5021432;28;20058;-61
2024/02/01 05:48:03;;;;;;;13.13;7.97;;;;;;;11.49;100.00;102518.13;5005039;28;20050;-62
2024/02/01 05:50:31;;;;;;;20.65;9.15;;;;;;;11.57;100.00;102531.41;5038215;28;20062;-63
2024/02/01 05:52:58;;;;;;;17.48;9.02;;;;;;;11.38;100.00;102522.81;5006915;28;20056;-61
2024/02/01 05:55:26;;;;;;;14.43;8.75;;;;;;;11.35;100.00;102526.13;5022374;28;20069;-61
2024/02/01 05:57:53;;;;;;;22.30;9.52;;;;;;;11.04;100.00;102532.72;5022218;28;20068;-62
2024/02/01 06:00:21;;;;;;;20.20;9.27;;;;;;;11.20;100.00;102528.06;5003850;28;20176;-62
2024/02/01 06:02:51;;;;;;;16.73;9.40;;;;;;;11.31;100.00;102524.22;5006039;28;20065;-61
2024/02/01 06:05:20;;;;;;;21.17;9.50;;;;;;;11.28;100.00;102524.75;5006087;28;20050;-62
2024/02/01 06:07:47;;;;;;;20.30;9.13;;;;;;;11.24;100.00;102538.25;4990202;28;20061;-63
2024/02/01 06:10:14;;;;;;;19.42;9.98;;;;;;;11.29;100.00;102531.94;5011222;28;20061;-62
2024/02/01 06:12:42;;;;;;;16.45;9.45;;;;;;;11.33;100.00;102533.06;4989684;28;20057;-63
2024/02/01 06:15:11;;;;;;;19.58;10.02;;;;;;;11.27;100.00;102537.72;5038860;28;20753;-62
2024/02/01 06:17:39;;;;;;;;;;;;;;;11.29;100.00;102543.81;5011640;28;20065;-62
2024/02/01 06:20:09;;;;;;;21.58;9.82;;;;;;;11.29;100.00;102541.03;5041921;28;19932;-63
2024/02/01 06:22:37;;;;;;;18.30;9.27;;;;;;;11.33;100.00;102541.31;5011819;28;20726;-62
2024/02/01 06:25:05;;;;;;;16.35;9.57;;;;;;;11.56;100.00;102543.53;5011133;28;20050;-63
2024/02/01 06:27:32;;;;;;;18.10;10.27;;;;;;;11.49;100.00;102540.22;5009595;28;20046;-62
2024/02/01 06:30:00;;;;;;;18.92;10.77;;;;;;;11.25;100.00;102542.69;5009793;28;20046;-63
2024/02/01 06:32:28;;;;;;;22.63;10.15;;;;;;;11.27;100.00;102543.25;5026604;28;20065;-62
2024/02/01 06:35:05;;;;;;;;;;;;;;;11.32;100.00;102548.75;5012178;28;20092;-64
2024/02/01 06:37:35;;;;;;;17.13;9.43;;;;;;;11.05;100.00;102556.41;5010123;28;19929;-63
2024/02/01 06:43:08;;;;;;;19.65;9.35;;;;;;;11.43;100.00;102568.91;5043567;28;19925;-63
2024/02/01 06:45:47;;;;;;;19.83;9.90;;;;;;;11.49;100.00;102564.25;5011356;28;20054;-62
2024/02/01 06:48:15;;;;;;;19.75;10.18;;;;;;;11.38;100.00;102569.72;5009755;28;20056;-62
2024/02/01 06:50:53;;;;;;;20.75;10.35;;;;;;;11.36;100.00;102573.88;5025623;28;20607;-63
2024/02/01 06:53:23;;;;;;;23.08;10.48;;;;;;;11.45;100.00;102576.91;5009150;28;20065;-64
2024/02/01 06:56:18;;;;;;;19.02;10.43;;;;;;;11.35;100.00;102575.81;5010911;28;20064;-62
2024/02/01 06:58:56;;;;;;;23.58;10.32;;;;;;;11.47;100.00;102570.03;5009296;28;20109;-63
2024/02/01 07:01:51;;;;;;;25.90;10.65;;;;;;;11.47;100.00;102572.81;5041687;28;20046;-63
2024/02/01 07:04:21;;;;;;;19.98;10.63;;;;;;;11.64;100.00;102591.84;5010599;28;20061;-63
2024/02/01 07:09:37;;;;;;;24.33;10.70;;;;;;;11.61;100.00;102597.91;5010336;28;20756;-63
2024/02/01 07:15:19;;;;;;;20.52;10.40;;;;;;;11.68;100.00;102606.78;5008332;28;20077;-64
2024/02/01 07:17:43;;;;;;;25.23;9.95;;;;;;;11.40;100.00;102597.06;5008302;28;20081;-64
2024/02/01 07:20:23;;;;;;;25.88;10.73;;;;;;;11.30;100.00;102610.81;5023321;28;20061;-63
2024/02/01 07:23:34;;;;;;;20.48;10.48;;;;;;;11.49;100.00;102619.44;5010255;28;20307;-62
2024/02/01 07:25:48;;;;;;;;;;;;;;;11.35;100.00;102616.34;5009376;28;20196;-63
2024/02/01 07:58:49;;;;;;;16.23;8.73;;;;;;;11.51;100.00;102648.41;5005529;28;20402;-62
2024/02/01 08:01:21;;;;;;;19.88;9.15;;;;;;;11.55;100.00;102655.03;5007600;28;20050;-62
2024/02/01 08:03:58;;;;;;;16.15;8.48;;;;;;;11.56;100.00;102651.16;5006687;28;20054;-62
2024/02/01 08:09:12;;;;;;;17.65;9.38;;;;;;;11.63;100.00;102660.00;5006218;28;20064;-61
2024/02/01 08:11:43;;;;;;;25.02;7.25;;;;;;;12.06;100.00;102658.72;5007909;28;20054;-62
2024/02/01 08:14:11;;;;;;;15.18;6.15;;;;;;;12.46;100.00;102655.94;5004506;28;20054;-63
2024/02/01 08:16:39;;;;;;;9.98;5.45;;;;;;;12.96;99.43;102657.72;5004370;28;20061;-62
2024/02/01 08:19:07;;;;;;;13.38;6.88;;;;;;;12.89;96.45;102658.03;5005951;28;20054;-62
2024/02/01 08:21:46;;;;;;;11.70;6.85;;;;;;;12.36;99.78;102667.81;5007314;28;20050;-64
2024/02/01 08:24:13;;;;;;;15.43;7.30;;;;;;;11.97;100.00;102661.22;5025528;28;20053;-63
2024/02/01 08:26:43;;;;;;;14.75;7.20;;;;;;;11.92;100.00;102658.44;5017831;28;20402;-63
2024/02/01 08:29:36;;;;;;;12.45;7.40;;;;;;;11.85;100.00;102665.34;5020926;28;20064;-66
2024/02/01 08:32:34;;;;;;;13.18;7.05;;;;;;;11.66;100.00;102666.97;5019272;28;20046;-63
2024/02/01 08:35:09;;;;;;;12.73;7.07;;;;;;;11.59;100.00;102666.38;5009494;28;20061;-63
2024/02/01 08:37:38;;;;;;;13.43;7.72;;;;;;;11.84;100.00;102677.47;5011960;28;20065;-64
2024/02/01 08:40:16;;;;;;;13.75;7.10;;;;;;;11.74;100.00;102680.22;5009036;28;20042;-63
2024/02/01 08:42:44;;;;;;;16.30;7.88;;;;;;;12.06;100.00;102678.91;5004645;28;20042;-63
2024/02/01 08:45:27;;;;;;;14.13;7.35;;;;;;;11.76;100.00;102678.00;5009815;28;20049;-64
2024/02/01 08:48:00;;;;;;;13.50;7.28;;;;;;;11.71;100.00;102675.25;5013317;28;20062;-63
2024/02/01 08:50:29;;;;;;;12.02;6.50;;;;;;;11.83;100.00;102673.06;4997134;28;20052;-63
2024/02/01 08:52:56;;;;;;;12.85;7.13;;;;;;;11.75;100.00;102685.47;5024735;28;20057;-63
2024/02/01 08:55:24;;;;;;;11.88;6.65;;;;;;;11.74;100.00;102689.34;5008645;28;20077;-64
2024/02/01 08:57:52;;;;;;;17.27;7.60;;;;;;;11.79;100.00;102697.63;5041535;28;20052;-63
2024/02/01 09:00:25;;;;;;;14.35;7.22;;;;;;;11.70;100.00;102701.22;5001945;28;20054;-63
2024/02/01 09:03:10;;;;;;;11.85;6.85;;;;;;;11.77;100.00;102704.53;5012081;28;20053;-67
2024/02/01 09:05:41;;;;;;;15.50;7.47;;;;;;;11.69;100.00;102703.13;5013854;28;20053;-63
2024/02/01 09:08:12;;;;;;;14.95;7.93;;;;;;;11.80;100.00;102703.97;4992290;28;20046;-63
2024/02/01 09:10:50;;;;;;;15.35;7.55;;;;;;;11.75;100.00;102699.25;5035046;28;20046;-65
2024/02/01 09:13:19;;;;;;;13.63;7.43;;;;;;;11.79;100.00;102694.88;5026322;28;20054;-63
2024/02/01 09:15:47;;;;;;;11.77;7.10;;;;;;;12.00;100.00;102698.47;5009703;28;20635;-63
2024/02/01 09:18:17;;;;;;;13.20;7.82;;;;;;;12.03;100.00;102695.19;5038921;28;20053;-63
2024/02/01 09:20:46;;;;;;;13.27;7.22;;;;;;;12.13;100.00;102700.72;5001635;28;20046;-64
2024/02/01 09:23:13;;;;;;;13.85;6.93;;;;;;;12.16;100.00;102701.00;5010035;28;20050;-63
2024/02/01 09:25:41;;;;;;;10.68;6.55;;;;;;;12.27;100.00;102701.81;5010521;28;20042;-63
2024/02/01 09:28:13;;;;;;;12.25;6.25;;;;;;;12.03;100.00;102701.53;4999632;28;20049;-63
2024/02/01 09:30:45;;;;;;;11.32;6.50;;;;;;;12.02;100.00;102704.56;5008435;28;20053;-63
2024/02/01 09:33:13;;;;;;;15.00;6.97;;;;;;;12.06;100.00;102705.69;5011245;28;20065;-64
2024/02/01 09:35:41;;;;;;;12.98;6.35;;;;;;;12.01;100.00;102720.28;5007010;28;20053;-63
2024/02/01 09:38:09;;;;;;;8.68;6.03;;;;;;;11.99;100.00;102718.94;5008407;28;20085;-62
2024/02/01 09:40:43;;;;;;;8.95;5.70;;;;;;;12.14;100.00;102721.69;5009811;28;20053;-63
2024/02/01 09:43:20;;;;;;;10.60;6.78;;;;;;;12.10;100.00;102729.69;5008531;28;20050;-63
2024/02/01 09:45:49;;;;;;;12.13;6.70;;;;;;;11.82;100.00;102727.44;5009104;28;20053;-65
2024/02/01 09:48:18;;;;;;;12.55;7.47;;;;;;;11.85;100.00;102729.69;5032049;28;20054;-63
2024/02/01 09:50:55;;;;;;;9.93;6.00;;;;;;;11.77;100.00;102724.66;5045738;28;20050;-63
2024/02/01 09:53:25;;;;;;;10.80;6.03;;;;;;;11.74;100.00;102730.75;5009432;28;20452;-63
2024/02/01 09:55:59;;;;;;;11.57;7.63;;;;;;;11.89;100.00;102729.97;5037896;28;23157;-64
2024/02/01 09:58:28;;;;;;;10.82;7.28;;;;;;;12.03;100.00;102728.34;5004035;28;20038;-62
2024/02/01 10:00:55;;;;;;;10.15;6.53;;;;;;;12.08;100.00;102734.66;5004942;28;20065;-63
2024/02/01 10:03:27;;;;;;;11.63;6.30;;;;;;;12.04;100.00;102733.56;5042911;28;20057;-63
2024/02/01 10:05:56;;;;;;;10.68;6.40;;;;;;;12.13;100.00;102736.63;5010024;28;20046;-63
2024/02/01 10:08:25;;;;;;;10.23;6.13;;;;;;;11.97;100.00;102735.78;5009244;28;20060;-62
2024/02/01 10:10:52;;;;;;;9.15;5.38;;;;;;;11.94;100.00;102733.53;5006833;28;20069;-63
2024/02/01 10:13:30;;;;;;;9.38;5.60;;;;;;;12.01;100.00;102736.06;5007785;28;20057;-62
2024/02/01 10:16:01;;;;;;;9.25;5.50;;;;;;;11.98;100.00;102734.66;5006702;28;20870;-62
2024/02/01 10:18:29;;;;;;;7.80;4.50;;;;;;;12.29;100.00;102743.81;5007949;28;20533;-63
2024/02/01 10:20:58;;;;;;;7.57;4.45;;;;;;;12.37;100.00;102746.03;5006906;28;20473;-63
2024/02/01 10:23:27;;;;;;;8.63;5.85;;;;;;;11.95;100.00;102751.78;5006713;28;20073;-62
2024/02/01 10:25:55;;;;;;;8.50;5.25;;;;;;;11.90;100.00;102739.91;5036721;28;20058;-62
2024/02/01 10:28:34;;;;;;;11.05;4.53;;;;;;;11.94;100.00;102746.53;5012766;28;20050;-63
2024/02/01 10:31:08;;;;;;;7.07;3.70;;;;;;;11.94;100.00;102758.38;5007608;28;20049;-63
2024/02/01 10:33:36;;;;;;;10.80;3.75;;;;;;;11.77;100.00;102749.53;5008626;28;20058;-63
2024/02/01 10:36:08;;;;;;;8.45;4.40;;;;;;;11.63;100.00;102753.84;5007213;28;20052;-63
2024/02/01 10:38:42;;;;;;;6.68;3.10;;;;;;;11.60;100.00;102762.69;5002154;28;20069;-62
2024/02/01 10:41:16;;;;;;;5.55;3.10;;;;;;;11.71;100.00;102755.31;5031345;28;20058;-67
2024/02/01 10:43:45;;;;;;;5.75;2.67;;;;;;;11.51;100.00;102764.31;4999508;28;20077;-63
2024/02/01 10:46:18;;;;;;;7.13;3.42;;;;;;;11.82;100.00;102766.09;5040422;28;20046;-63
2024/02/01 10:48:48;;;;;;;9.10;3.38;;;;;;;11.90;100.00;102764.75;5008817;28;20503;-62
2024/02/01 10:51:16;;;;;;;5.15;2.40;;;;;;;12.13;100.00;102767.00;5008371;28;20053;-62
2024/02/01 10:53:46;;;;;;;5.82;2.40;;;;;;;12.00;100.00;102770.28;5006745;28;20579;-63
2024/02/01 10:56:14;;;;;;;9.15;2.70;;;;;;;12.10;100.00;102767.56;5008023;28;20066;-62
2024/02/01 10:58:42;;;;;;;4.97;2.88;;;;;;;11.81;100.00;102758.94;5017606;28;20054;-63
2024/02/01 11:01:12;;;;;;;8.65;3.08;;;;;;;11.89;100.00;102763.09;5012961;28;20050;-63
2024/02/01 11:03:50;;;;;;;8.25;3.10;;;;;;;12.10;100.00;102759.28;5013290;28;20052;-63
2024/02/01 11:06:18;;;;;;;11.70;3.70;;;;;;;12.02;100.00;102759.78;5007452;28;20610;-63
2024/02/01 11:08:51;;;;;;;9.25;2.92;;;;;;;11.99;100.00;102754.84;5011441;28;20056;-61
2024/02/01 11:11:20;;;;;;;19.55;10.05;;;;;;;11.97;100.00;102752.34;5010777;28;20650;-61
2024/02/01 11:14:06;;;;;;;13.07;5.72;;;;;;;11.84;100.00;102741.81;5026373;28;20054;-61
2024/02/01 11:16:41;;;;;;;7.43;3.75;;;;;;;12.04;100.00;102741.88;5009725;28;20057;-62
2024/02/01 11:19:14;;;;;;;6.97;3.53;;;;;;;12.29;100.00;102743.81;5026434;28;20049;-63
2024/02/01 11:22:19;;;;;;;8.30;4.35;;;;;;;12.18;100.00;102742.97;5012725;28;20042;-61
2024/02/01 11:25:04;;;;;;;6.72;3.53;;;;;;;12.10;100.00;102746.28;5037817;28;20049;-62
2024/02/01 11:27:36;;;;;;;7.22;3.95;;;;;;;12.21;100.00;102747.13;5010440;28;20062;-61
2024/02/01 11:30:21;;;;;;;8.20;4.15;;;;;;;12.04;100.00;102744.63;5011021;28;20053;-61
2024/02/01 11:32:51;;;;;;;12.38;5.10;;;;;;;11.96;100.00;102750.66;5023951;28;20049;-62
2024/02/01 11:35:20;;;;;;;8.07;3.77;;;;;;;11.75;100.00;102751.72;5021263;28;20056;-61
2024/02/01 11:37:54;;;;;;;10.10;4.78;;;;;;;12.03;100.00;102748.47;5006529;28;20069;-62
2024/02/01 11:40:21;;;;;;;8.55;4.65;;;;;;;11.70;100.00;102750.91;5007070;28;20053;-63
2024/02/01 11:42:48;;;;;;;14.18;8.88;;;;;;;11.87;100.00;102755.06;5001217;28;20057;-61
2024/02/01 11:45:18;;;;;;;12.88;7.22;;;;;;;12.10;100.00;102748.22;5010279;28;20050;-63
2024/02/01 11:47:51;;;;;;;27.08;18.30;;;;;;;11.95;100.00;102748.19;5043391;28;20729;-62
2024/02/01 11:50:23;;;;;;;17.70;10.50;;;;;;;11.84;100.00;102755.63;5009731;28;20504;-63
2024/02/01 11:52:58;;;;;;;9.60;5.88;;;;;;;11.58;100.00;102750.25;5010932;28;20121;-62
2024/02/01 11:55:29;;;;;;;8.75;4.85;;;;;;;11.57;100.00;102737.56;5007552;28;20058;-61
2024/02/01 11:57:59;;;;;;;14.63;7.32;;;;;;;11.57;100.00;102740.31;5006170;28;20057;-63
2024/02/01 12:00:28;;;;;;;14.88;10.18;;;;;;;11.84;100.00;102730.75;5004957;28;20058;-62
2024/02/01 12:03:15;;;;;;;11.23;7.82;;;;;;;12.12;100.00;102723.91;5009051;28;20045;-62
2024/02/01 12:05:45;;;;;;;14.43;8.70;;;;;;;12.08;100.00;102725.56;5009869;28;20057;-62
2024/02/01 12:08:13;;;;;;;17.05;10.05;;;;;;;12.01;100.00;102725.81;5007453;28;20058;-64
2024/02/01 12:10:45;;;;;;;13.45;9.25;;;;;;;12.10;100.00;102723.38;5010346;28;20053;-67